Time;durP1;ratioP1;P1;durP2;ratioP2;P2;SDS_P1;SDS_P2;PMS_P1;PMS_P2;Temp;Humidity;BMP_temperature;BMP_pressure;BME280_temperature;BME280_humidity;BME280_pressure;Samples;Min_cycle;Max_cycle;Signal;HPM_P1;HPM_P2
2022/03/23 00:00:54;;;;;;;;;;;;;;;;;;2211457;59;1690;-69
2022/03/23 00:03:28;;;;;;;;;;;;;;;;;;2210956;59;1840;-69
2022/03/23 00:06:01;;;;;;;;;;;;;;;;;;2211901;67;1074;-69
2022/03/23 00:08:34;;;;;;;;;;;;;;;;;;2209869;59;1937;-69
2022/03/23 00:11:17;;;;;;;;;;;;;;;;;;2210995;59;1986;-69
2022/03/23 00:13:50;;;;;;;;;;;;;;;;;;2211228;59;1908;-69
2022/03/23 00:16:24;;;;;;;;;;;;;;;;;;2211653;67;1278;-69
2022/03/23 00:19:03;;;;;;;;;;;;;;;;;;2210973;67;1373;-69
2022/03/23 00:21:36;;;;;;;;;;;;;;;;;;2207371;67;1192;-69
2022/03/23 00:24:09;;;;;;;;;;;;;;;;;;2213029;53;1886;-69
2022/03/23 00:26:45;;;;;;;;;;;;;;;;;;2207850;67;1141;-69
2022/03/23 00:29:18;;;;;;;;;;;;;;;;;;2210147;59;1425;-69
2022/03/23 00:31:51;;;;;;;;;;;;;;;;;;2209363;67;1936;-69
2022/03/23 00:34:25;;;;;;;;;;;;;;;;;;2208736;59;1324;-69
2022/03/23 00:36:58;;;;;;;;;;;;;;;;;;2207947;67;1188;-69
2022/03/23 00:39:31;;;;;;;;;;;;;;;;;;2207511;59;1253;-69
2022/03/23 00:42:07;;;;;;;;;;;;;;;;;;2207375;59;1303;-69
2022/03/23 00:44:40;;;;;;;;;;;;;;;;;;2207551;59;1527;-69
2022/03/23 00:47:14;;;;;;;;;;;;;;;;;;2208211;67;1093;-69
2022/03/23 00:49:47;;;;;;;;;;;;;;;;;;2207818;59;1177;-69
2022/03/23 00:52:20;;;;;;;;;;;;;;;;;;2204108;67;1932;-69
2022/03/23 00:54:53;;;;;;;;;;;;;;;;;;2207634;67;1203;-69
2022/03/23 00:57:29;;;;;;;;;;;;;;;;;;2207238;59;1297;-69
2022/03/23 01:00:02;;;;;;;;;;;;;;;;;;2207845;59;1046;-69
2022/03/23 01:02:36;;;;;;;;;;;;;;;;;;2207334;67;1089;-69
2022/03/23 01:05:11;;;;;;;;;;;;;;;;;;2207650;59;1852;-69
2022/03/23 01:07:46;;;;;;;;;;;;;;;;;;2207759;59;2020;-69
2022/03/23 01:10:20;;;;;;;;;;;;;;;;;;2203263;67;2287;-69
2022/03/23 01:12:56;;;;;;;;;;;;;;;;;;2207438;67;2313;-69
2022/03/23 01:15:29;;;;;;;;;;;;;;;;;;2207909;67;1224;-69
2022/03/23 01:18:03;;;;;;;;;;;;;;;;;;2207633;59;1112;-69
2022/03/23 01:20:36;;;;;;;;;;;;;;;;;;2207740;67;1235;-69
2022/03/23 01:23:09;;;;;;;;;;;;;;;;;;2207850;59;1271;-69
2022/03/23 01:25:42;;;;;;;;;;;;;;;;;;2206987;59;1572;-69
2022/03/23 01:28:18;;;;;;;;;;;;;;;;;;2207971;59;1180;-69
2022/03/23 01:30:51;;;;;;;;;;;;;;;;;;2207239;59;1214;-69
2022/03/23 01:33:25;;;;;;;;;;;;;;;;;;2207168;67;1933;-69
2022/03/23 01:35:58;;;;;;;;;;;;;;;;;;2207111;59;1618;-69
2022/03/23 01:38:31;;;;;;;;;;;;;;;;;;2204190;67;2215;-69
2022/03/23 01:41:04;;;;;;;;;;;;;;;;;;2207874;59;1139;-69
2022/03/23 01:43:40;;;;;;;;;;;;;;;;;;2207023;59;1693;-69
2022/03/23 01:46:13;;;;;;;;;;;;;;;;;;2208083;59;1136;-69
2022/03/23 01:48:46;;;;;;;;;;;;;;;;;;2207627;67;1144;-69
2022/03/23 01:51:19;;;;;;;;;;;;;;;;;;2207069;59;1592;-69
2022/03/23 01:53:52;;;;;;;;;;;;;;;;;;2206870;59;1938;-69
2022/03/23 01:56:26;;;;;;;;;;;;;;;;;;2206961;59;1534;-69
2022/03/23 01:59:03;;;;;;;;;;;;;;;;;;2203076;59;1625;-69
2022/03/23 02:01:37;;;;;;;;;;;;;;;;;;2207029;67;1262;-69
2022/03/23 02:04:10;;;;;;;;;;;;;;;;;;2205727;59;1582;-68
2022/03/23 02:06:43;;;;;;;;;;;;;;;;;;2206768;59;1826;-69
2022/03/23 02:09:16;;;;;;;;;;;;;;;;;;2206135;59;1867;-68
2022/03/23 02:11:50;;;;;;;;;;;;;;;;;;2206342;59;1928;-69
2022/03/23 02:14:26;;;;;;;;;;;;;;;;;;2206756;59;1840;-69
2022/03/23 02:16:59;;;;;;;;;;;;;;;;;;2206302;59;1744;-69
2022/03/23 02:19:32;;;;;;;;;;;;;;;;;;2207672;67;1293;-69
2022/03/23 02:22:09;;;;;;;;;;;;;;;;;;2207744;67;1126;-69
2022/03/23 02:24:42;;;;;;;;;;;;;;;;;;2205908;59;1666;-68
2022/03/23 02:27:16;;;;;;;;;;;;;;;;;;2207209;67;1135;-69
2022/03/23 02:29:50;;;;;;;;;;;;;;;;;;2207419;67;1247;-69
2022/03/23 02:32:24;;;;;;;;;;;;;;;;;;2207047;59;1929;-69
2022/03/23 02:34:57;;;;;;;;;;;;;;;;;;2207010;59;1581;-69
2022/03/23 02:37:34;;;;;;;;;;;;;;;;;;2207119;59;1721;-69
2022/03/23 02:40:08;;;;;;;;;;;;;;;;;;2207517;59;1693;-69
2022/03/23 02:42:42;;;;;;;;;;;;;;;;;;2208135;59;1253;-69
2022/03/23 02:45:16;;;;;;;;;;;;;;;;;;2207240;59;1666;-69
2022/03/23 02:47:49;;;;;;;;;;;;;;;;;;2206943;59;1998;-69
2022/03/23 02:50:22;;;;;;;;;;;;;;;;;;2207629;59;1679;-69
2022/03/23 03:04:24;;;;;;;;;;;;;;;;;;2207736;59;1606;-69
2022/03/23 03:06:59;;;;;;;;;;;;;;;;;;2207367;59;1948;-68
2022/03/23 03:09:35;;;;;;;;;;;;;;;;;;2207601;59;1513;-69
2022/03/23 03:12:10;;;;;;;;;;;;;;;;;;2208419;59;1926;-69
2022/03/23 03:14:43;;;;;;;;;;;;;;;;;;2206555;59;1613;-69
2022/03/23 03:17:17;;;;;;;;;;;;;;;;;;2207013;59;1868;-69
2022/03/23 03:19:50;;;;;;;;;;;;;;;;;;2207191;59;1661;-69
2022/03/23 03:22:25;;;;;;;;;;;;;;;;;;2207429;59;1623;-69
2022/03/23 03:25:00;;;;;;;;;;;;;;;;;;2207094;59;1730;-68
2022/03/23 03:27:35;;;;;;;;;;;;;;;;;;2207601;59;1224;-69
2022/03/23 03:30:09;;;;;;;;;;;;;;;;;;2208082;59;1115;-69
2022/03/23 03:32:42;;;;;;;;;;;;;;;;;;2207841;59;1984;-69
2022/03/23 03:35:16;;;;;;;;;;;;;;;;;;2207123;59;1608;-69
2022/03/23 03:37:49;;;;;;;;;;;;;;;;;;2207174;59;1709;-69
2022/03/23 03:40:25;;;;;;;;;;;;;;;;;;2207130;59;1606;-69
2022/03/23 03:42:58;;;;;;;;;;;;;;;;;;2206218;59;1749;-68
2022/03/23 03:45:31;;;;;;;;;;;;;;;;;;2205648;59;1992;-69
2022/03/23 03:48:05;;;;;;;;;;;;;;;;;;2206654;59;1840;-69
2022/03/23 03:50:39;;;;;;;;;;;;;;;;;;2207253;59;1895;-69
2022/03/23 03:53:12;;;;;;;;;;;;;;;;;;2207277;59;1997;-69
2022/03/23 03:55:48;;;;;;;;;;;;;;;;;;2206219;59;2563;-69
2022/03/23 03:58:21;;;;;;;;;;;;;;;;;;2207238;59;1811;-69
2022/03/23 04:00:54;;;;;;;;;;;;;;;;;;2207212;59;1630;-69
2022/03/23 04:03:27;;;;;;;;;;;;;;;;;;2206919;59;1740;-69
2022/03/23 04:06:00;;;;;;;;;;;;;;;;;;2206563;59;1801;-69
2022/03/23 04:08:34;;;;;;;;;;;;;;;;;;2206993;59;1866;-68
2022/03/23 04:11:10;;;;;;;;;;;;;;;;;;2207453;59;1622;-69
2022/03/23 04:13:44;;;;;;;;;;;;;;;;;;2207485;59;2464;-69
2022/03/23 04:16:17;;;;;;;;;;;;;;;;;;2207144;59;1654;-69
2022/03/23 04:18:50;;;;;;;;;;;;;;;;;;2206343;59;1626;-69
2022/03/23 04:21:23;;;;;;;;;;;;;;;;;;2206440;59;1877;-69
2022/03/23 04:23:56;;;;;;;;;;;;;;;;;;2207008;59;1879;-69
2022/03/23 04:26:32;;;;;;;;;;;;;;;;;;2207783;67;1287;-68
2022/03/23 04:29:06;;;;;;;;;;;;;;;;;;2207345;67;1216;-69
2022/03/23 04:31:39;;;;;;;;;;;;;;;;;;2207180;59;1244;-69
2022/03/23 04:34:12;;;;;;;;;;;;;;;;;;2207112;59;2006;-69
2022/03/23 04:36:45;;;;;;;;;;;;;;;;;;2206910;59;1756;-69
2022/03/23 04:39:18;;;;;;;;;;;;;;;;;;2207342;59;1736;-69
2022/03/23 04:41:54;;;;;;;;;;;;;;;;;;2206745;59;1673;-69
2022/03/23 04:44:27;;;;;;;;;;;;;;;;;;2206485;59;1617;-69
2022/03/23 04:47:01;;;;;;;;;;;;;;;;;;2207284;59;1605;-69
2022/03/23 04:49:34;;;;;;;;;;;;;;;;;;2208006;59;1162;-69
2022/03/23 04:52:07;;;;;;;;;;;;;;;;;;2208346;67;1283;-69
2022/03/23 04:54:40;;;;;;;;;;;;;;;;;;2207383;59;2074;-68
2022/03/23 04:57:16;;;;;;;;;;;;;;;;;;2207655;59;1549;-69
2022/03/23 04:59:51;;;;;;;;;;;;;;;;;;2207228;59;1775;-69
2022/03/23 05:02:24;;;;;;;;;;;;;;;;;;2207486;59;1765;-69
2022/03/23 05:04:57;;;;;;;;;;;;;;;;;;2206513;59;1806;-69
2022/03/23 05:07:30;;;;;;;;;;;;;;;;;;2206428;59;1808;-69
2022/03/23 05:10:03;;;;;;;;;;;;;;;;;;2206698;59;1750;-69
2022/03/23 05:12:40;;;;;;;;;;;;;;;;;;2207746;67;2166;-69
2022/03/23 05:15:14;;;;;;;;;;;;;;;;;;2206557;59;1925;-69
2022/03/23 05:17:47;;;;;;;;;;;;;;;;;;2206563;59;1649;-69
2022/03/23 05:20:20;;;;;;;;;;;;;;;;;;2206537;59;1773;-68
2022/03/23 05:22:53;;;;;;;;;;;;;;;;;;2206243;59;1622;-69
2022/03/23 05:25:27;;;;;;;;;;;;;;;;;;2205921;59;2006;-69
2022/03/23 05:28:02;;;;;;;;;;;;;;;;;;2206960;59;1797;-69
2022/03/23 05:30:36;;;;;;;;;;;;;;;;;;2206683;59;1586;-69
2022/03/23 05:33:09;;;;;;;;;;;;;;;;;;2207562;59;1928;-69
2022/03/23 05:35:42;;;;;;;;;;;;;;;;;;2206611;59;1667;-69
2022/03/23 05:38:15;;;;;;;;;;;;;;;;;;2206346;59;1930;-69
2022/03/23 05:40:48;;;;;;;;;;;;;;;;;;2207020;59;1662;-69
2022/03/23 05:43:24;;;;;;;;;;;;;;;;;;2207574;67;1248;-69
2022/03/23 05:45:57;;;;;;;;;;;;;;;;;;2206648;59;1584;-69
2022/03/23 05:48:30;;;;;;;;;;;;;;;;;;2206664;59;1689;-69
2022/03/23 05:51:04;;;;;;;;;;;;;;;;;;2207594;67;1101;-69
2022/03/23 05:53:38;;;;;;;;;;;;;;;;;;2206914;67;1983;-68
2022/03/23 05:56:11;;;;;;;;;;;;;;;;;;2206928;59;1599;-69
2022/03/23 05:58:47;;;;;;;;;;;;;;;;;;2206637;59;1758;-69
2022/03/23 06:01:20;;;;;;;;;;;;;;;;;;2206664;59;1733;-68
2022/03/23 06:03:53;;;;;;;;;;;;;;;;;;2202975;59;1662;-69
2022/03/23 06:06:26;;;;;;;;;;;;;;;;;;2207260;59;1549;-69
2022/03/23 06:08:59;;;;;;;;;;;;;;;;;;2207328;59;1749;-69
2022/03/23 06:11:33;;;;;;;;;;;;;;;;;;2207807;59;1950;-69
2022/03/23 06:14:08;;;;;;;;;;;;;;;;;;2207315;59;1944;-68
2022/03/23 06:16:42;;;;;;;;;;;;;;;;;;2207377;59;1743;-69
2022/03/23 06:19:15;;;;;;;;;;;;;;;;;;2207921;59;1685;-69
2022/03/23 06:21:48;;;;;;;;;;;;;;;;;;2208322;59;1303;-68
2022/03/23 06:24:22;;;;;;;;;;;;;;;;;;2212277;53;1835;-69
2022/03/23 06:26:55;;;;;;;;;;;;;;;;;;2209765;59;1217;-69
2022/03/23 06:29:46;;;;;;;;;;;;;;;;;;2209280;59;1707;-69
2022/03/23 06:32:22;;;;;;;;;;;;;;;;;;2207038;59;1636;-69
2022/03/23 06:35:08;;;;;;;;;;;;;;;;;;2208717;59;2044;-69
2022/03/23 06:37:42;;;;;;;;;;;;;;;;;;2207786;59;1945;-69
2022/03/23 06:40:15;;;;;;;;;;;;;;;;;;2208995;59;1642;-69
2022/03/23 06:43:09;;;;;;;;;;;;;;;;;;2208165;59;1556;-69
2022/03/23 06:48:37;;;;;;;;;;;;;;;;;;2202153;59;1798;-69
2022/03/23 06:54:32;;;;;;;;;;;;;;;;;;2208687;67;1976;-69
2022/03/23 06:57:08;;;;;;;;;;;;;;;;;;2209876;67;1095;-70
2022/03/23 06:59:45;;;;;;;;;;;;;;;;;;2209880;59;1103;-69
2022/03/23 07:02:18;;;;;;;;;;;;;;;;;;2209987;59;1208;-69
2022/03/23 07:04:55;;;;;;;;;;;;;;;;;;2207460;59;1741;-69
2022/03/23 07:07:28;;;;;;;;;;;;;;;;;;2207939;67;2276;-69
2022/03/23 07:09:59;;;;;;;;;;;;;;;;;;2208404;67;1176;-69
2022/03/23 07:12:32;;;;;;;;;;;;;;;;;;2208105;67;2212;-69
2022/03/23 07:15:08;;;;;;;;;;;;;;;;;;2207025;67;2263;-70
2022/03/23 07:17:42;;;;;;;;;;;;;;;;;;2209003;67;1171;-70
2022/03/23 07:20:18;;;;;;;;;;;;;;;;;;2208297;67;1098;-70
2022/03/23 07:22:51;;;;;;;;;;;;;;;;;;2208128;67;1161;-70
2022/03/23 07:25:25;;;;;;;;;;;;;;;;;;2206726;59;1711;-70
2022/03/23 07:27:58;;;;;;;;;;;;;;;;;;2207341;59;1280;-70
2022/03/23 07:30:33;;;;;;;;;;;;;;;;;;2208223;59;1211;-70
2022/03/23 07:33:10;;;;;;;;;;;;;;;;;;2208206;67;1284;-70
2022/03/23 07:35:46;;;;;;;;;;;;;;;;;;2208120;67;1939;-69
2022/03/23 07:38:20;;;;;;;;;;;;;;;;;;2207994;59;1587;-70
2022/03/23 07:40:53;;;;;;;;;;;;;;;;;;2207405;67;1332;-70
2022/03/23 07:43:26;;;;;;;;;;;;;;;;;;2205747;67;1511;-70
2022/03/23 07:45:59;;;;;;;;;;;;;;;;;;2207119;59;1855;-70
2022/03/23 07:48:33;;;;;;;;;;;;;;;;;;2207828;59;1104;-70
2022/03/23 07:51:09;;;;;;;;;;;;;;;;;;2207839;67;1390;-70
2022/03/23 07:53:42;;;;;;;;;;;;;;;;;;2209898;59;1166;-70
2022/03/23 07:56:25;;;;;;;;;;;;;;;;;;;;;
2022/03/23 07:59:02;;;;;;;;;;;;;;;;;;2209161;67;1287;-70
2022/03/23 08:01:35;;;;;;;;;;;;;;;;;;2207445;59;1559;-70
2022/03/23 08:04:09;;;;;;;;;;;;;;;;;;2207521;59;1953;-70
2022/03/23 08:06:45;;;;;;;;;;;;;;;;;;2207805;59;2110;-70
2022/03/23 08:09:18;;;;;;;;;;;;;;;;;;2208726;59;1157;-70
2022/03/23 08:11:51;;;;;;;;;;;;;;;;;;2207553;67;2420;-69
2022/03/23 08:14:25;;;;;;;;;;;;;;;;;;2208253;67;1933;-70
2022/03/23 08:16:58;;;;;;;;;;;;;;;;;;2209162;67;1261;-70
2022/03/23 08:19:31;;;;;;;;;;;;;;;;;;2208495;67;1211;-70
2022/03/23 08:22:09;;;;;;;;;;;;;;;;;;2208271;67;1106;-70
2022/03/23 08:24:42;;;;;;;;;;;;;;;;;;2207079;59;1710;-70
2022/03/23 08:27:15;;;;;;;;;;;;;;;;;;2208612;59;1252;-70
2022/03/23 08:29:48;;;;;;;;;;;;;;;;;;2209130;67;1191;-70
2022/03/23 08:32:22;;;;;;;;;;;;;;;;;;2204000;67;1419;-70
2022/03/23 08:34:56;;;;;;;;;;;;;;;;;;2207226;67;1970;-70
2022/03/23 08:37:32;;;;;;;;;;;;;;;;;;2209355;67;1303;-70
2022/03/23 08:40:05;;;;;;;;;;;;;;;;;;2208227;67;1185;-70
2022/03/23 08:42:39;;;;;;;;;;;;;;;;;;2209606;59;1217;-70
2022/03/23 08:45:12;;;;;;;;;;;;;;;;;;2207056;59;1687;-70
2022/03/23 08:47:48;;;;;;;;;;;;;;;;;;2207965;67;1155;-70
2022/03/23 08:50:22;;;;;;;;;;;;;;;;;;2207229;67;1259;-70
2022/03/23 08:53:00;;;;;;;;;;;;;;;;;;2207892;67;1281;-70
2022/03/23 08:55:33;;;;;;;;;;;;;;;;;;2209159;67;1936;-70
2022/03/23 08:58:06;;;;;;;;;;;;;;;;;;2209237;59;1237;-70
2022/03/23 09:00:41;;;;;;;;;;;;;;;;;;2208420;67;1262;-70
2022/03/23 09:03:14;;;;;;;;;;;;;;;;;;2208196;67;1130;-70
2022/03/23 09:05:48;;;;;;;;;;;;;;;;;;2206771;59;1604;-70
2022/03/23 09:08:24;;;;;;;;;;;;;;;;;;2208047;59;2366;-70
2022/03/23 09:10:57;;;;;;;;;;;;;;;;;;2208231;67;1220;-71
2022/03/23 09:13:30;;;;;;;;;;;;;;;;;;2207795;59;2087;-70
2022/03/23 09:16:03;;;;;;;;;;;;;;;;;;2208986;67;1998;-70
2022/03/23 09:18:37;;;;;;;;;;;;;;;;;;2208382;59;1592;-70
2022/03/23 09:21:10;;;;;;;;;;;;;;;;;;2207425;59;1638;-70
2022/03/23 09:23:50;;;;;;;;;;;;;;;;;;2209096;59;1248;-70
2022/03/23 09:26:24;;;;;;;;;;;;;;;;;;2206870;59;2040;-70
2022/03/23 09:28:57;;;;;;;;;;;;;;;;;;2206401;67;1242;-69
2022/03/23 09:31:30;;;;;;;;;;;;;;;;;;2209130;59;1189;-70
2022/03/23 09:34:03;;;;;;;;;;;;;;;;;;2208670;67;1225;-70
2022/03/23 09:39:28;;;;;;;;;;;;;;;;;;2205382;67;1238;-70
2022/03/23 09:42:02;;;;;;;;;;;;;;;;;;2210435;67;1118;-69
2022/03/23 09:44:35;;;;;;;;;;;;;;;;;;2207318;59;1752;-70
2022/03/23 09:47:08;;;;;;;;;;;;;;;;;;2208587;59;1202;-70
2022/03/23 09:49:42;;;;;;;;;;;;;;;;;;2209219;67;1287;-70
2022/03/23 09:52:15;;;;;;;;;;;;;;;;;;2209348;67;1307;-70
2022/03/23 09:54:51;;;;;;;;;;;;;;;;;;2209477;67;1985;-70
2022/03/23 09:57:24;;;;;;;;;;;;;;;;;;2209992;67;1349;-71
2022/03/23 09:59:57;;;;;;;;;;;;;;;;;;2209027;67;1279;-70
2022/03/23 10:02:51;;;;;;;;;;;;;;;;;;2208724;67;1085;-70
2022/03/23 10:05:45;;;;;;;;;;;;;;;;;;2207333;59;1907;-70
2022/03/23 10:08:41;;;;;;;;;;;;;;;;;;2207638;67;2011;-70
2022/03/23 10:11:32;;;;;;;;;;;;;;;;;;2208542;67;1221;-70
2022/03/23 10:14:31;;;;;;;;;;;;;;;;;;2207235;67;1190;-70
2022/03/23 10:17:26;;;;;;;;;;;;;;;;;;2207519;67;1106;-70
2022/03/23 10:20:01;;;;;;;;;;;;;;;;;;2207885;67;1128;-70
2022/03/23 10:22:35;;;;;;;;;;;;;;;;;;2207975;67;1208;-70
2022/03/23 10:25:10;;;;;;;;;;;;;;;;;;2203023;59;1921;-70
2022/03/23 10:27:43;;;;;;;;;;;;;;;;;;2208200;67;1169;-70
2022/03/23 10:30:16;;;;;;;;;;;;;;;;;;2207381;59;1689;-70
2022/03/23 10:32:52;;;;;;;;;;;;;;;;;;2209553;59;1125;-70
2022/03/23 10:35:36;;;;;;;;;;;;;;;;;;2207102;67;1924;-70
2022/03/23 10:38:13;;;;;;;;;;;;;;;;;;2208840;67;1165;-70
2022/03/23 10:40:47;;;;;;;;;;;;;;;;;;2207900;59;1171;-70
2022/03/23 10:43:39;;;;;;;;;;;;;;;;;;2207985;59;1716;-70
2022/03/23 10:46:13;;;;;;;;;;;;;;;;;;2206811;59;1953;-70
2022/03/23 10:48:58;;;;;;;;;;;;;;;;;;2207195;59;1238;-71
2022/03/23 10:51:32;;;;;;;;;;;;;;;;;;2207302;60;1143;-70
2022/03/23 10:54:15;;;;;;;;;;;;;;;;;;2208462;67;1205;-70
2022/03/23 10:56:49;;;;;;;;;;;;;;;;;;2207910;59;1920;-70
2022/03/23 10:59:25;;;;;;;;;;;;;;;;;;2208510;67;1105;-70
2022/03/23 11:02:03;;;;;;;;;;;;;;;;;;2208802;67;1279;-70
2022/03/23 11:04:50;;;;;;;;;;;;;;;;;;2208030;59;1760;-70
2022/03/23 11:07:25;;;;;;;;;;;;;;;;;;2208869;59;1944;-70
2022/03/23 11:15:51;;;;;;;;;;;;;;;;;;2209365;59;1995;-70
2022/03/23 11:18:25;;;;;;;;;;;;;;;;;;2209499;59;1303;-70
2022/03/23 11:21:01;;;;;;;;;;;;;;;;;;2208523;67;1283;-70
2022/03/23 11:23:36;;;;;;;;;;;;;;;;;;2209412;67;1224;-70
2022/03/23 11:26:10;;;;;;;;;;;;;;;;;;2209204;59;2043;-70
2022/03/23 11:28:44;;;;;;;;;;;;;;;;;;2210039;59;1264;-70
2022/03/23 11:31:18;;;;;;;;;;;;;;;;;;2208820;59;1155;-70
2022/03/23 11:33:52;;;;;;;;;;;;;;;;;;2208695;67;1327;-70
2022/03/23 11:36:30;;;;;;;;;;;;;;;;;;2209545;67;1999;-70
2022/03/23 11:39:04;;;;;;;;;;;;;;;;;;2209383;67;1161;-70
2022/03/23 11:41:37;;;;;;;;;;;;;;;;;;2209770;59;1113;-70
2022/03/23 11:44:14;;;;;;;;;;;;;;;;;;2208320;59;1702;-70
2022/03/23 11:46:47;;;;;;;;;;;;;;;;;;2210165;67;1239;-71
2022/03/23 11:49:23;;;;;;;;;;;;;;;;;;2209137;67;1224;-70
2022/03/23 11:52:21;;;;;;;;;;;;;;;;;;2209166;67;1193;-70
2022/03/23 11:58:10;;;;;;;;;;;;;;;;;;2207802;59;1603;-70
2022/03/23 12:00:45;;;;;;;;;;;;;;;;;;2209784;67;1229;-70
2022/03/23 12:03:33;;;;;;;;;;;;;;;;;;2208811;67;1100;-70
2022/03/23 12:06:11;;;;;;;;;;;;;;;;;;2206823;59;1961;-70
2022/03/23 12:08:51;;;;;;;;;;;;;;;;;;2208160;59;1893;-70
2022/03/23 12:11:34;;;;;;;;;;;;;;;;;;2209068;59;1247;-70
2022/03/23 12:14:08;;;;;;;;;;;;;;;;;;2209648;67;1198;-70
2022/03/23 12:17:01;;;;;;;;;;;;;;;;;;2209308;67;1917;-70
2022/03/23 12:19:34;;;;;;;;;;;;;;;;;;2207252;59;1108;-70
2022/03/23 12:22:16;;;;;;;;;;;;;;;;;;2209841;67;1109;-70
2022/03/23 12:24:55;;;;;;;;;;;;;;;;;;2208828;53;3692;-67
2022/03/23 12:27:34;;;;;;;;;;;;;;;;;;2210272;59;1210;-69
2022/03/23 12:30:10;;;;;;;;;;;;;;;;;;2213836;59;1305;-69
2022/03/23 12:32:43;;;;;;;;;;;;;;;;;;2212295;59;1183;-69
2022/03/23 12:35:17;;;;;;;;;;;;;;;;;;2214028;59;1979;-69
2022/03/23 12:37:50;;;;;;;;;;;;;;;;;;2212838;67;1200;-70
2022/03/23 12:40:37;;;;;;;;;;;;;;;;;;2214477;59;1137;-69
2022/03/23 12:43:10;;;;;;;;;;;;;;;;;;2212846;59;1237;-69
2022/03/23 12:45:44;;;;;;;;;;;;;;;;;;2212764;59;1726;-69
2022/03/23 12:59:36;;;;;;;;;;;;;;;;;;2214749;59;1139;-69
2022/03/23 13:02:30;;;;;;;;;;;;;;;;;;2213606;67;1295;-69
2022/03/23 13:05:07;;;;;;;;;;;;;;;;;;2212092;59;1748;-69
2022/03/23 13:07:44;;;;;;;;;;;;;;;;;;2214218;59;1705;-69
2022/03/23 13:10:24;;;;;;;;;;;;;;;;;;2214173;67;1260;-69
2022/03/23 13:13:09;;;;;;;;;;;;;;;;;;2212615;59;1819;-70
2022/03/23 13:15:42;;;;;;;;;;;;;;;;;;2213461;67;1937;-69
2022/03/23 13:18:16;;;;;;;;;;;;;;;;;;2213517;67;1262;-69
2022/03/23 13:20:52;;;;;;;;;;;;;;;;;;2213659;67;1196;-69
2022/03/23 13:23:26;;;;;;;;;;;;;;;;;;2213150;67;1164;-69
2022/03/23 13:26:04;;;;;;;;;;;;;;;;;;2210569;59;1772;-70
2022/03/23 13:28:41;;;;;;;;;;;;;;;;;;2212044;59;1272;-69
2022/03/23 13:31:14;;;;;;;;;;;;;;;;;;2212666;67;1148;-69
2022/03/23 13:33:49;;;;;;;;;;;;;;;;;;2213298;67;1226;-69
2022/03/23 13:36:24;;;;;;;;;;;;;;;;;;2212878;59;1917;-69
2022/03/23 13:38:58;;;;;;;;;;;;;;;;;;2212883;67;1246;-69
2022/03/23 13:44:54;;;;;;;;;;;;;;;;;;2211136;59;1921;-68
2022/03/23 13:47:31;;;;;;;;;;;;;;;;;;2210897;67;1096;-68
2022/03/23 13:50:06;;;;;;;;;;;;;;;;;;2212696;59;1267;-68
2022/03/23 13:52:39;;;;;;;;;;;;;;;;;;2212800;59;1164;-68
2022/03/23 13:55:16;;;;;;;;;;;;;;;;;;2212493;67;1202;-67
2022/03/23 13:57:50;;;;;;;;;;;;;;;;;;2212366;67;1944;-68
2022/03/23 14:00:27;;;;;;;;;;;;;;;;;;2212287;67;1273;-68
2022/03/23 14:03:00;;;;;;;;;;;;;;;;;;2212960;59;1097;-68
2022/03/23 14:05:34;;;;;;;;;;;;;;;;;;2210661;59;1720;-68
2022/03/23 14:08:07;;;;;;;;;;;;;;;;;;2212026;59;1812;-68
2022/03/23 14:10:41;;;;;;;;;;;;;;;;;;2213461;67;1214;-68
2022/03/23 14:13:14;;;;;;;;;;;;;;;;;;2212620;67;1874;-68
2022/03/23 14:15:54;;;;;;;;;;;;;;;;;;2213144;67;1931;-67
2022/03/23 14:18:29;;;;;;;;;;;;;;;;;;2213390;67;1226;-67
2022/03/23 14:21:04;;;;;;;;;;;;;;;;;;2212479;67;1113;-67
2022/03/23 14:23:37;;;;;;;;;;;;;;;;;;2212941;67;1115;-68
2022/03/23 14:26:32;;;;;;;;;;;;;;;;;;2210718;59;1610;-67
2022/03/23 14:29:20;;;;;;;;;;;;;;;;;;2212454;67;1129;-68
2022/03/23 14:31:56;;;;;;;;;;;;;;;;;;2213569;59;1194;-67
2022/03/23 14:34:30;;;;;;;;;;;;;;;;;;2212567;67;1140;-67
2022/03/23 14:37:08;;;;;;;;;;;;;;;;;;2210403;67;1924;-68
2022/03/23 14:39:41;;;;;;;;;;;;;;;;;;2213618;59;1310;-68
2022/03/23 14:42:17;;;;;;;;;;;;;;;;;;2213809;59;1241;-67
2022/03/23 14:44:50;;;;;;;;;;;;;;;;;;2212603;59;1852;-68
2022/03/23 14:47:46;;;;;;;;;;;;;;;;;;2212690;67;1195;-68
2022/03/23 14:50:19;;;;;;;;;;;;;;;;;;2213550;67;1128;-68
2022/03/23 14:52:53;;;;;;;;;;;;;;;;;;2214023;59;1210;-68
2022/03/23 14:55:28;;;;;;;;;;;;;;;;;;2213216;59;1356;-68
2022/03/23 14:58:01;;;;;;;;;;;;;;;;;;2213580;67;1932;-68
2022/03/23 15:00:34;;;;;;;;;;;;;;;;;;2213867;67;1116;-68
2022/03/23 15:03:10;;;;;;;;;;;;;;;;;;2213440;67;1120;-68
2022/03/23 15:14:09;;;;;;;;;;;;;;;;;;2213108;67;1341;-68
2022/03/23 15:16:42;;;;;;;;;;;;;;;;;;2212781;67;2351;-68
2022/03/23 15:19:18;;;;;;;;;;;;;;;;;;2213289;67;1167;-68
2022/03/23 15:21:52;;;;;;;;;;;;;;;;;;2213697;67;1163;-68
2022/03/23 15:24:25;;;;;;;;;;;;;;;;;;2211837;59;1587;-68
2022/03/23 15:26:58;;;;;;;;;;;;;;;;;;2212339;59;1207;-68
2022/03/23 15:29:31;;;;;;;;;;;;;;;;;;2213823;67;1364;-68
2022/03/23 15:32:04;;;;;;;;;;;;;;;;;;2213232;67;1225;-68
2022/03/23 15:34:40;;;;;;;;;;;;;;;;;;2209281;67;1423;-68
2022/03/23 15:37:15;;;;;;;;;;;;;;;;;;2212041;67;1924;-68
2022/03/23 15:39:48;;;;;;;;;;;;;;;;;;2213992;67;1448;-68
2022/03/23 15:45:08;;;;;;;;;;;;;;;;;;2212492;59;1917;-68
2022/03/23 15:47:42;;;;;;;;;;;;;;;;;;2212959;59;1096;-68
2022/03/23 15:50:18;;;;;;;;;;;;;;;;;;2211262;67;1547;-68
2022/03/23 15:52:51;;;;;;;;;;;;;;;;;;2213964;67;1290;-68
2022/03/23 15:55:26;;;;;;;;;;;;;;;;;;2213083;59;1291;-68
2022/03/23 15:58:00;;;;;;;;;;;;;;;;;;2213699;59;1941;-68
2022/03/23 16:00:33;;;;;;;;;;;;;;;;;;2213757;67;2485;-68
2022/03/23 16:03:06;;;;;;;;;;;;;;;;;;2213737;67;1243;-68
2022/03/23 16:05:43;;;;;;;;;;;;;;;;;;2211760;59;1761;-68
2022/03/23 16:08:16;;;;;;;;;;;;;;;;;;2212098;67;2154;-68
2022/03/23 16:10:50;;;;;;;;;;;;;;;;;;2213817;67;1250;-68
2022/03/23 16:13:23;;;;;;;;;;;;;;;;;;2213631;67;2207;-68
2022/03/23 16:15:56;;;;;;;;;;;;;;;;;;2214384;67;1296;-68
2022/03/23 16:18:29;;;;;;;;;;;;;;;;;;2210527;59;1990;-68
2022/03/23 16:21:05;;;;;;;;;;;;;;;;;;2213046;67;1146;-68
2022/03/23 16:23:39;;;;;;;;;;;;;;;;;;2213106;67;1127;-68
2022/03/23 16:26:15;;;;;;;;;;;;;;;;;;2211728;59;1732;-67
2022/03/23 16:28:54;;;;;;;;;;;;;;;;;;2213414;59;1225;-67
2022/03/23 16:31:27;;;;;;;;;;;;;;;;;;2212357;67;1214;-67
2022/03/23 16:34:00;;;;;;;;;;;;;;;;;;2212878;67;1208;-67
2022/03/23 16:36:37;;;;;;;;;;;;;;;;;;2212694;67;1933;-67
2022/03/23 16:39:10;;;;;;;;;;;;;;;;;;2213720;59;1322;-67
2022/03/23 16:41:43;;;;;;;;;;;;;;;;;;2212526;60;1258;-67
2022/03/23 16:44:18;;;;;;;;;;;;;;;;;;2212350;59;1681;-67
2022/03/23 16:46:51;;;;;;;;;;;;;;;;;;2213437;67;1381;-67
2022/03/23 16:49:24;;;;;;;;;;;;;;;;;;2212630;67;1350;-68
2022/03/23 16:52:00;;;;;;;;;;;;;;;;;;2213447;59;1222;-67
2022/03/23 16:54:34;;;;;;;;;;;;;;;;;;2211065;67;1966;-67
2022/03/23 16:57:08;;;;;;;;;;;;;;;;;;2212831;67;1933;-67
2022/03/23 16:59:41;;;;;;;;;;;;;;;;;;2213538;67;1117;-70
2022/03/23 17:02:14;;;;;;;;;;;;;;;;;;2212461;67;1300;-69
2022/03/23 17:13:17;;;;;;;;;;;;;;;;;;2211596;59;2207;-70
2022/03/23 17:15:51;;;;;;;;;;;;;;;;;;2212053;59;1363;-70
2022/03/23 17:18:24;;;;;;;;;;;;;;;;;;2212552;67;1936;-70
2022/03/23 17:20:58;;;;;;;;;;;;;;;;;;2212892;59;1240;-70
2022/03/23 17:23:33;;;;;;;;;;;;;;;;;;2210957;67;1235;-70
2022/03/23 17:26:07;;;;;;;;;;;;;;;;;;2211988;59;1881;-69
2022/03/23 17:28:40;;;;;;;;;;;;;;;;;;2210892;67;1083;-70
2022/03/23 17:31:14;;;;;;;;;;;;;;;;;;2213285;59;1281;-70
2022/03/23 17:33:47;;;;;;;;;;;;;;;;;;2210405;67;1124;-70
2022/03/23 17:36:20;;;;;;;;;;;;;;;;;;2212387;59;1967;-70
2022/03/23 17:38:56;;;;;;;;;;;;;;;;;;2213629;67;1931;-70
2022/03/23 17:41:35;;;;;;;;;;;;;;;;;;2213670;59;1263;-69
2022/03/23 17:44:08;;;;;;;;;;;;;;;;;;2214187;66;1266;-69
2022/03/23 17:46:41;;;;;;;;;;;;;;;;;;2212930;59;1415;-70
2022/03/23 17:49:14;;;;;;;;;;;;;;;;;;2212869;67;1231;-70
2022/03/23 17:51:48;;;;;;;;;;;;;;;;;;2213835;59;1274;-70
2022/03/23 17:54:24;;;;;;;;;;;;;;;;;;2212781;59;1297;-70
2022/03/23 17:56:57;;;;;;;;;;;;;;;;;;2212935;59;1932;-69
2022/03/23 17:59:30;;;;;;;;;;;;;;;;;;2213621;59;1262;-70
2022/03/23 18:02:03;;;;;;;;;;;;;;;;;;2213762;67;1120;-69
2022/03/23 18:04:37;;;;;;;;;;;;;;;;;;2211891;59;1827;-70
2022/03/23 18:07:11;;;;;;;;;;;;;;;;;;2212996;59;1263;-70
2022/03/23 18:09:47;;;;;;;;;;;;;;;;;;2213554;59;1132;-70
2022/03/23 18:12:20;;;;;;;;;;;;;;;;;;2213108;67;2171;-70
2022/03/23 18:14:56;;;;;;;;;;;;;;;;;;2213493;59;1274;-70
2022/03/23 18:17:30;;;;;;;;;;;;;;;;;;2213038;59;2431;-70
2022/03/23 18:20:03;;;;;;;;;;;;;;;;;;2213564;59;1123;-70
2022/03/23 18:22:36;;;;;;;;;;;;;;;;;;2213849;67;1111;-70
2022/03/23 18:25:12;;;;;;;;;;;;;;;;;;2210767;54;3711;-70
2022/03/23 18:27:46;;;;;;;;;;;;;;;;;;2212287;59;1280;-70
2022/03/23 18:30:19;;;;;;;;;;;;;;;;;;2214081;59;1617;-70
2022/03/23 18:32:52;;;;;;;;;;;;;;;;;;2213475;59;1084;-70
2022/03/23 18:35:27;;;;;;;;;;;;;;;;;;2212746;59;2045;-70
2022/03/23 18:38:00;;;;;;;;;;;;;;;;;;2211289;67;2244;-69
2022/03/23 18:40:38;;;;;;;;;;;;;;;;;;2210472;59;1390;-70
2022/03/23 18:43:11;;;;;;;;;;;;;;;;;;2211280;59;1266;-69
2022/03/23 18:45:45;;;;;;;;;;;;;;;;;;2209952;59;1548;-69
2022/03/23 18:48:18;;;;;;;;;;;;;;;;;;2211535;67;1283;-69
2022/03/23 18:50:51;;;;;;;;;;;;;;;;;;2211831;59;1112;-69
2022/03/23 18:53:24;;;;;;;;;;;;;;;;;;2210429;59;1224;-70
2022/03/23 18:56:00;;;;;;;;;;;;;;;;;;2211123;67;1155;-70
2022/03/23 18:58:35;;;;;;;;;;;;;;;;;;2210056;67;1988;-70
2022/03/23 19:01:09;;;;;;;;;;;;;;;;;;2210676;59;1570;-69